Norris Rancho Marino Reserve, California Weather observations

Data are for 10 minute period ending at time listed.
 Day   Time   Solar   Ave.   Ave.  Ave.  Vector  Max.   Baro.   Total    
  of    of     Rad.   Air    Rel.  Wind   Wind   Wind  Press.  Precip.   
Year   Day            Temp.  Hum.  Speed  Dir.   Gust                    
2017   (PST)  Kw/m2    F      %     mph   deg.    mph    mb.     in.     
-------------------------------------------------------------------------
  82   13:50   0.78   56.8    75   14.1   286    17.5   1019.8    0.00 
  82   14:00   0.76   56.9    75   14.7   286    18.6   1019.7    0.00 
  82   14:10   0.74   56.8    76   14.2   286    17.4   1019.6    0.00 
  82   14:20   0.72   56.6    76   14.6   285    18.6   1019.6    0.00 
  82   14:30   0.70   56.9    75   15.2   290    20.3   1019.6    0.00 
  82   14:40   0.64   56.6    75   16.1   289    20.5   1019.6    0.00 
  82   14:50   0.65   56.4    75   17.3   288    21.7   1019.8    0.00 
  82   15:00   0.63   56.3    75   16.7   286    20.5   1019.9    0.00 
  82   15:10   0.60   56.4    76   16.2   289    21.2   1019.9    0.00 
  82   15:20   0.57   56.2    76   16.4   290    22.1   1019.9    0.00 
  82   15:30   0.54   56.3    76   15.5   292    19.3   1019.9    0.00 
  82   15:40   0.51   56.0    76   15.9   291    21.8   1019.9    0.00 
  82   15:50   0.48   55.9    76   16.8   290    21.3   1019.9    0.00 
  82   16:00   0.45   55.5    76   18.3   290    22.3   1019.8    0.00 
  82   16:10   0.44   55.5    76   17.9   290    21.5   1019.9    0.00 
  82   16:20   0.40   55.7    76   16.3   292    21.4   1019.9    0.00 
  82   16:30   0.35   55.4    77   17.1   289    22.4   1020.1    0.00 
  82   16:40   0.31   55.1    77   19.4   292    23.5   1020.4    0.00 
  82   16:50   0.28   55.0    77   18.4   291    24.0   1020.6    0.00 
  82   17:00   0.24   54.9    77   17.8   296    23.2   1020.7    0.00 
  82   17:10   0.20   54.6    76   17.4   294    23.1   1020.6    0.00 
  82   17:20   0.17   54.6    78   14.9   294    20.5   1020.5    0.00 
  82   17:30   0.13   54.1    78   16.7   293    21.0   1020.5    0.00 
  82   17:40   0.10   53.9    79   16.9   293    20.6   1020.6    0.00 
  82   17:50   0.08   53.7    78   17.9   294    23.0   1020.8    0.00 
  82   18:00   0.05   53.4    80   15.4   295    20.5   1020.7    0.00 
  82   18:10   0.03   53.2    79   16.5   296    21.3   1020.7    0.00 
  82   18:20   0.02   52.9    80   14.5   299    19.4   1020.7    0.00 
  82   18:30   0.01   52.9    80   15.4   296    21.5   1020.6    0.00 
  82   18:40   0.01   52.6    82   12.1   298    17.8   1020.5    0.00 
  82   18:50   0.01   52.5    82   12.4   301    16.9   1020.6    0.00 
  82   19:00   0.01   52.5    81   12.8   301    19.2   1020.5    0.00 
  82   19:10   0.01   52.0    83   10.3   308    15.7   1020.4    0.00 
  82   19:20   0.01   51.8    84   10.5   308    14.5   1020.6    0.00 
  82   19:30   0.01   51.6    85    9.8   311    13.4   1020.8    0.00 
  82   19:40   0.01   51.7    84   11.7   315    18.7   1020.8    0.00 
  82   19:50   0.01   51.8    83   10.4   316    15.0   1020.8    0.00 
  82   20:00   0.01   51.8    83    8.6   320    13.9   1020.9    0.00 
  82   20:10   0.01   51.6    83    7.3   328    11.7   1020.8    0.00 
  82   20:20   0.01   51.3    83    5.7   348     8.9   1020.8    0.00 
  82   20:30   0.01   51.0    83    5.0   352     8.8   1021.0    0.00 
  82   20:40   0.01   50.7    84    4.2   342     5.8   1021.1    0.00 
  82   20:50   0.01   50.9    85    4.7   327     8.0   1021.1    0.00 
  82   21:00   0.01   51.0    85    4.9   335     8.6   1020.9    0.00 
  82   21:10   0.01   51.1    85    4.2   348     8.3   1020.9    0.00 
  82   21:20   0.01   49.9    86    2.8    33     3.7   1020.9    0.00 
  82   21:30   0.01   49.1    88    5.0    41     7.7   1020.8    0.00 
  82   21:40   0.01   49.9    86    6.1    54     9.5   1020.8    0.00 
  82   21:50   0.01   49.8    86    5.1    75     8.5   1020.9    0.00 
  82   22:00   0.01   49.4    86    5.9    62    10.2   1020.9    0.00 
  82   22:10   0.01   48.8    87    3.9    58     8.3   1020.9    0.00 
  82   22:20   0.01   47.8    88    1.9    61     3.4   1021.2    0.00 
  82   22:30   0.01   47.2    90    2.3    69     3.9   1021.1    0.00 
  82   22:40   0.01   47.4    90    1.6    83     2.7   1021.1    0.00 
  82   22:50   0.01   47.6    90    2.1    35     4.4   1021.3    0.00 
  82   23:00   0.01   47.8    91    2.9     7     4.0   1021.3    0.00 
  82   23:10   0.01   48.6    90    3.9   350     5.3   1021.3    0.00 
  82   23:20   0.01   49.2    88    4.0   352     5.3   1021.3    0.00 
  82   23:30   0.01   49.1    87    3.9   354     6.4   1021.4    0.00 
  82   23:40   0.01   48.9    87    3.8     4     5.7   1021.3    0.00 
  82   23:50   0.01   49.1    87    4.2   355     6.4   1021.3    0.00 
  83    0:00   0.01   49.3    86    4.7   356     7.5   1021.2    0.00 
  83    0:10   0.01   49.4    85    5.2   352     7.6   1021.5    0.00 
  83    0:20   0.01   49.3    85    4.9   351     6.9   1021.6    0.00 
  83    0:30   0.01   49.2    85    4.1     4     5.9   1021.5    0.00 
  83    0:40   0.01   48.7    86    4.2   348     6.4   1021.6    0.00 
  83    0:50   0.01   48.7    87    3.8   358     5.6   1021.6    0.00 
  83    1:00   0.01   48.1    87    3.7    19     4.8   1021.4    0.00 
  83    1:10   0.01   47.6    89    3.8    18     4.8   1021.3    0.00 
  83    1:20   0.01   46.9    90    3.9    26     6.4   1021.1    0.00 
  83    1:30   0.01   46.7    91    5.3    64     8.4   1021.0    0.00 
  83    1:40   0.01   47.9    90    3.0   100     4.8   1020.8    0.00 
  83    1:50   0.01   47.7    89    2.1   100     3.4   1020.7    0.00 
  83    2:00   0.01   47.6    89    2.2    99     2.9   1020.7    0.00 
  83    2:10   0.01   46.9    90    2.0    66     3.3   1020.7    0.00 
  83    2:20   0.01   46.8    91    1.6    50     3.3   1020.6    0.00 
  83    2:30   0.01   46.4    92    2.1    57     3.3   1020.5    0.00 
  83    2:40   0.01   46.2    92    2.1    68     3.4   1020.5    0.00 
  83    2:50   0.01   45.9    93    3.0    69     4.0   1020.4    0.00 
  83    3:00   0.01   46.3    93    3.0    77     3.9   1020.4    0.00 
  83    3:10   0.01   46.2    93    3.0    73     3.7   1020.3    0.00 
  83    3:20   0.01   46.2    93    3.2    66     4.6   1020.2    0.00 
  83    3:30   0.01   46.3    93    2.6    63     3.9   1020.2    0.00 
  83    3:40   0.01   46.3    93    2.6    54     3.5   1020.3    0.00 
  83    3:50   0.01   46.0    93    2.6    58     3.6   1020.4    0.00 
  83    4:00   0.01   46.0    94    3.0    49     3.7   1020.3    0.00 
  83    4:10   0.01   46.2    94    3.2    45     4.0   1020.4    0.00 
  83    4:20   0.01   46.0    94    3.0    38     4.2   1020.3    0.00 
  83    4:30   0.01   45.6    94    4.1    49     4.9   1020.2    0.00 
  83    4:40   0.01   46.0    94    3.2    71     4.8   1020.0    0.00 
  83    4:50   0.01   45.9    94    2.1    72     4.6   1020.1    0.00 
  83    5:00   0.01   45.6    94    2.3    37     3.1   1020.3    0.00 
  83    5:10   0.01   45.3    94    2.6    50     3.7   1020.4    0.00 
  83    5:20   0.01   45.4    94    3.0    69     4.2   1020.2    0.00 
  83    5:30   0.01   45.6    94    3.3    77     4.3   1020.1    0.00 
  83    5:40   0.01   45.8    94    3.2    76     4.7   1020.1    0.00 
  83    5:50   0.01   45.5    94    3.6    61     4.5   1020.1    0.00 
  83    6:00   0.01   45.5    94    2.7    66     4.2   1020.2    0.00 
  83    6:10   0.01   45.2    93    3.2    68     4.4   1020.2    0.00 
  83    6:20   0.02   45.5    93    3.4    76     5.0   1020.1    0.00 
  83    6:30   0.04   45.7    93    2.9    84     4.7   1020.2    0.00 
  83    6:40   0.05   46.2    93    1.8    81     3.1   1020.4    0.00 
  83    6:50   0.06   46.5    93    1.5    67     2.2   1020.6    0.00 
  83    7:00   0.07   46.7    93    2.3    83     3.5   1020.7    0.00 
  83    7:10   0.11   47.4    92    2.7    89     3.4   1020.7    0.00 
  83    7:20   0.19   48.7    92    2.6   100     4.1   1020.8    0.00 
  83    7:30   0.21   50.3    91    2.1   112     3.3   1021.2    0.00 
  83    7:40   0.26   51.8    90    3.3   124     5.0   1021.5    0.00 
  83    7:50   0.30   52.7    88    5.0   134     6.5   1021.6    0.00 
  83    8:00   0.30   53.0    86    6.4   134     7.5   1021.6    0.00 
  83    8:10   0.32   53.3    86    6.7   137     8.8   1021.6    0.00 
  83    8:20   0.43   53.6    86    6.8   141     8.9   1021.6    0.00 
  83    8:30   0.35   54.0    86    6.7   138     9.6   1021.7    0.00 
  83    8:40   0.26   53.9    86    7.1   137     9.9   1021.8    0.00 
  83    8:50   0.26   53.9    86    8.1   137    11.0   1021.7    0.00 
  83    9:00   0.28   54.0    86    7.8   142    11.0   1021.8    0.00 
  83    9:10   0.28   54.0    86    7.9   142    10.1   1021.9    0.00 
  83    9:20   0.30   54.0    87    6.5   144     8.8   1022.1    0.00 
  83    9:30   0.34   54.5    88    5.7   138     8.1   1022.2    0.00 
  83    9:40   0.38   54.0    87    5.7   151     7.7   1022.3    0.00 
  83    9:50   0.24   53.4    87    5.3   153     7.0   1022.4    0.00 
  83   10:00   0.22   53.4    87    4.3   151     6.0   1022.7    0.00 
  83   10:10   0.24   53.6    87    3.4   160     5.6   1022.8    0.00 
  83   10:20   0.32   54.1    87    2.6   160     3.9   1022.8    0.00 
  83   10:30   0.29   54.4    86    2.3   158     4.3   1022.8    0.00 
  83   10:40   0.34   54.9    86    2.0   171     3.4   1022.7    0.00 
  83   10:50   0.39   55.1    84    2.6   135     4.3   1022.7    0.00 
  83   11:00   0.43   55.3    84    2.7   161     5.0   1022.5    0.00 
  83   11:10   0.62   56.0    83    2.6   166     4.5   1022.4    0.00 
  83   11:20   0.62   56.4    81    3.1   172     4.5   1022.3    0.00 
  83   11:30   0.55   56.6    81    3.2   164     4.2   1022.2    0.00 
  83   11:40   0.52   56.2    81    3.9   164     5.0   1021.9    0.00 
  83   11:50   0.58   56.0    82    4.4   160     5.8   1021.8    0.00 
  83   12:00   0.70   57.0    82    4.3   162     5.3   1021.8    0.00 
  83   12:10   0.50   56.0    82    4.7   154     6.4   1021.7    0.00 
  83   12:20   0.61   56.2    83    4.7   157     6.1   1021.8    0.00 
  83   12:30   0.59   56.0    82    4.9   160     5.9   1021.8    0.00 
  83   12:40   0.71   56.6    83    4.8   154     6.5   1021.6    0.00 
  83   12:50   0.72   57.0    82    5.7   158     7.3   1021.5    0.00 
  83   13:00   0.76   57.5    82    5.0   152     7.2   1021.3    0.00 
  83   13:10   0.71   57.8    81    4.7   142     7.2   1021.3    0.00 
  83   13:20   0.63   58.3    81    5.3   138     8.2   1021.1    0.00 
  83   13:30   0.42   57.7    81    4.9   140     7.2   1021.1    0.00 
  83   13:40   0.26   56.8    82    5.5   147     7.4   1021.1    0.00 

Return to Norris Rancho Marino Reserve graphs page.


Western Regional Climate Center,wrcc@dri.edu